sensor_id;sensor_type;location;lat;lon;timestamp;temperature;humidity
14210;DHT22;7188;56.070;12.698;2023-06-22T00:01:28;17.90;1.00
14210;DHT22;7188;56.070;12.698;2023-06-22T00:03:53;17.90;1.00
14210;DHT22;7188;56.070;12.698;2023-06-22T00:06:19;17.90;1.00
14210;DHT22;7188;56.070;12.698;2023-06-22T00:08:45;17.90;1.00
14210;DHT22;7188;56.070;12.698;2023-06-22T00:11:11;17.90;1.00
14210;DHT22;7188;56.070;12.698;2023-06-22T00:13:37;17.90;1.00
14210;DHT22;7188;56.070;12.698;2023-06-22T00:16:03;17.90;1.00
14210;DHT22;7188;56.070;12.698;2023-06-22T00:18:29;17.90;13.90
14210;DHT22;7188;56.070;12.698;2023-06-22T00:20:56;17.90;4.30
14210;DHT22;7188;56.070;12.698;2023-06-22T00:23:25;17.80;28.50
14210;DHT22;7188;56.070;12.698;2023-06-22T00:25:51;17.80;99.90
14210;DHT22;7188;56.070;12.698;2023-06-22T00:28:17;17.80;99.90
14210;DHT22;7188;56.070;12.698;2023-06-22T00:30:42;17.80;99.90
14210;DHT22;7188;56.070;12.698;2023-06-22T00:33:08;17.70;99.90
14210;DHT22;7188;56.070;12.698;2023-06-22T00:35:34;17.80;99.90
14210;DHT22;7188;56.070;12.698;2023-06-22T00:38:00;17.80;99.90
14210;DHT22;7188;56.070;12.698;2023-06-22T00:40:28;17.80;99.90
14210;DHT22;7188;56.070;12.698;2023-06-22T00:42:54;17.70;1.00
14210;DHT22;7188;56.070;12.698;2023-06-22T00:45:21;17.70;1.00
14210;DHT22;7188;56.070;12.698;2023-06-22T00:47:57;17.70;1.00
14210;DHT22;7188;56.070;12.698;2023-06-22T00:50:25;17.70;1.00
14210;DHT22;7188;56.070;12.698;2023-06-22T00:52:53;17.70;1.00
14210;DHT22;7188;56.070;12.698;2023-06-22T00:55:22;17.70;99.90
14210;DHT22;7188;56.070;12.698;2023-06-22T00:57:48;17.80;99.90
14210;DHT22;7188;56.070;12.698;2023-06-22T01:00:15;17.70;1.00
14210;DHT22;7188;56.070;12.698;2023-06-22T01:02:46;17.70;1.00
14210;DHT22;7188;56.070;12.698;2023-06-22T01:05:16;17.70;1.00
14210;DHT22;7188;56.070;12.698;2023-06-22T01:10:43;17.70;1.00
14210;DHT22;7188;56.070;12.698;2023-06-22T01:16:20;17.60;1.00
14210;DHT22;7188;56.070;12.698;2023-06-22T01:18:51;17.60;99.90
14210;DHT22;7188;56.070;12.698;2023-06-22T01:21:19;17.70;1.00
14210;DHT22;7188;56.070;12.698;2023-06-22T01:29:00;17.60;1.00
14210;DHT22;7188;56.070;12.698;2023-06-22T01:31:27;17.70;1.00
14210;DHT22;7188;56.070;12.698;2023-06-22T01:33:58;17.60;99.90
14210;DHT22;7188;56.070;12.698;2023-06-22T01:36:26;17.50;99.90
14210;DHT22;7188;56.070;12.698;2023-06-22T01:38:53;17.50;99.90
14210;DHT22;7188;56.070;12.698;2023-06-22T01:41:20;17.50;99.90
14210;DHT22;7188;56.070;12.698;2023-06-22T01:43:47;17.50;1.00
14210;DHT22;7188;56.070;12.698;2023-06-22T01:46:14;17.40;1.00
14210;DHT22;7188;56.070;12.698;2023-06-22T01:48:40;17.40;1.00
14210;DHT22;7188;56.070;12.698;2023-06-22T01:51:06;17.40;99.90
14210;DHT22;7188;56.070;12.698;2023-06-22T01:53:32;17.30;1.00
14210;DHT22;7188;56.070;12.698;2023-06-22T01:55:57;17.30;1.00
14210;DHT22;7188;56.070;12.698;2023-06-22T01:58:26;17.30;1.00
14210;DHT22;7188;56.070;12.698;2023-06-22T02:01:10;17.30;1.00
14210;DHT22;7188;56.070;12.698;2023-06-22T02:03:52;17.30;1.00
14210;DHT22;7188;56.070;12.698;2023-06-22T02:06:33;17.30;1.00
14210;DHT22;7188;56.070;12.698;2023-06-22T02:09:02;17.20;99.90
14210;DHT22;7188;56.070;12.698;2023-06-22T02:11:31;17.20;99.90
14210;DHT22;7188;56.070;12.698;2023-06-22T02:13:58;17.20;1.00
14210;DHT22;7188;56.070;12.698;2023-06-22T02:16:25;17.20;1.00
14210;DHT22;7188;56.070;12.698;2023-06-22T02:18:55;17.10;1.00
14210;DHT22;7188;56.070;12.698;2023-06-22T02:21:51;17.20;13.70
14210;DHT22;7188;56.070;12.698;2023-06-22T02:24:17;17.20;30.00
14210;DHT22;7188;56.070;12.698;2023-06-22T02:26:43;17.30;99.90
14210;DHT22;7188;56.070;12.698;2023-06-22T02:29:11;17.30;1.00
14210;DHT22;7188;56.070;12.698;2023-06-22T02:31:36;17.30;1.00
14210;DHT22;7188;56.070;12.698;2023-06-22T02:34:02;17.30;1.00
14210;DHT22;7188;56.070;12.698;2023-06-22T02:36:27;17.30;1.00
14210;DHT22;7188;56.070;12.698;2023-06-22T02:38:56;17.30;1.00
14210;DHT22;7188;56.070;12.698;2023-06-22T02:41:26;17.30;1.00
14210;DHT22;7188;56.070;12.698;2023-06-22T02:43:51;17.30;99.90
14210;DHT22;7188;56.070;12.698;2023-06-22T02:46:17;17.30;93.20
14210;DHT22;7188;56.070;12.698;2023-06-22T02:48:43;17.40;1.00
14210;DHT22;7188;56.070;12.698;2023-06-22T02:51:08;17.40;1.00
14210;DHT22;7188;56.070;12.698;2023-06-22T02:53:34;17.40;1.00
14210;DHT22;7188;56.070;12.698;2023-06-22T02:56:02;17.40;99.90
14210;DHT22;7188;56.070;12.698;2023-06-22T02:58:31;17.40;1.00
14210;DHT22;7188;56.070;12.698;2023-06-22T03:01:04;17.40;1.00
14210;DHT22;7188;56.070;12.698;2023-06-22T03:03:30;17.40;99.90
14210;DHT22;7188;56.070;12.698;2023-06-22T03:05:56;17.30;99.90
14210;DHT22;7188;56.070;12.698;2023-06-22T03:08:21;17.40;99.90
14210;DHT22;7188;56.070;12.698;2023-06-22T03:10:47;17.40;99.90
14210;DHT22;7188;56.070;12.698;2023-06-22T03:13:12;17.50;1.00
14210;DHT22;7188;56.070;12.698;2023-06-22T03:15:38;17.50;1.00
14210;DHT22;7188;56.070;12.698;2023-06-22T03:18:04;17.50;99.90
14210;DHT22;7188;56.070;12.698;2023-06-22T03:20:30;17.50;1.00
14210;DHT22;7188;56.070;12.698;2023-06-22T03:22:58;17.40;1.00
14210;DHT22;7188;56.070;12.698;2023-06-22T03:25:24;17.40;71.30
14210;DHT22;7188;56.070;12.698;2023-06-22T03:27:50;17.40;1.00
14210;DHT22;7188;56.070;12.698;2023-06-22T03:30:15;17.30;1.00
14210;DHT22;7188;56.070;12.698;2023-06-22T03:32:41;17.30;1.00
14210;DHT22;7188;56.070;12.698;2023-06-22T03:35:08;17.30;1.00
14210;DHT22;7188;56.070;12.698;2023-06-22T03:37:34;17.20;99.90
14210;DHT22;7188;56.070;12.698;2023-06-22T03:40:00;17.30;1.00
14210;DHT22;7188;56.070;12.698;2023-06-22T03:42:26;17.30;1.00
14210;DHT22;7188;56.070;12.698;2023-06-22T03:44:51;17.30;1.00
14210;DHT22;7188;56.070;12.698;2023-06-22T03:47:17;17.30;1.00
14210;DHT22;7188;56.070;12.698;2023-06-22T03:49:43;17.30;99.90
14210;DHT22;7188;56.070;12.698;2023-06-22T03:52:09;17.40;99.90
14210;DHT22;7188;56.070;12.698;2023-06-22T03:54:36;17.40;85.80
14210;DHT22;7188;56.070;12.698;2023-06-22T03:57:01;17.50;99.90
14210;DHT22;7188;56.070;12.698;2023-06-22T03:59:27;17.40;1.00
14210;DHT22;7188;56.070;12.698;2023-06-22T04:01:53;17.30;1.00
14210;DHT22;7188;56.070;12.698;2023-06-22T04:04:18;17.30;1.00
14210;DHT22;7188;56.070;12.698;2023-06-22T04:06:44;17.30;1.00
14210;DHT22;7188;56.070;12.698;2023-06-22T04:09:10;17.30;21.30
14210;DHT22;7188;56.070;12.698;2023-06-22T04:11:36;17.40;1.00
14210;DHT22;7188;56.070;12.698;2023-06-22T04:14:01;17.50;1.00
14210;DHT22;7188;56.070;12.698;2023-06-22T04:16:27;17.50;1.00
14210;DHT22;7188;56.070;12.698;2023-06-22T04:18:53;17.40;1.00
14210;DHT22;7188;56.070;12.698;2023-06-22T04:21:18;17.40;1.00
14210;DHT22;7188;56.070;12.698;2023-06-22T04:23:45;17.40;1.00
14210;DHT22;7188;56.070;12.698;2023-06-22T04:26:12;17.50;67.80
14210;DHT22;7188;56.070;12.698;2023-06-22T04:28:37;17.30;1.00
14210;DHT22;7188;56.070;12.698;2023-06-22T04:31:03;17.40;99.90
14210;DHT22;7188;56.070;12.698;2023-06-22T04:33:29;17.40;99.90
14210;DHT22;7188;56.070;12.698;2023-06-22T04:35:55;17.40;99.90
14210;DHT22;7188;56.070;12.698;2023-06-22T04:38:23;17.40;99.90
14210;DHT22;7188;56.070;12.698;2023-06-22T04:40:49;17.40;1.00
14210;DHT22;7188;56.070;12.698;2023-06-22T04:43:14;17.30;99.90
14210;DHT22;7188;56.070;12.698;2023-06-22T04:45:40;17.30;99.90
14210;DHT22;7188;56.070;12.698;2023-06-22T04:48:06;17.30;99.90
14210;DHT22;7188;56.070;12.698;2023-06-22T04:50:32;17.40;99.90
14210;DHT22;7188;56.070;12.698;2023-06-22T04:52:57;17.50;99.90
14210;DHT22;7188;56.070;12.698;2023-06-22T04:55:23;17.50;99.90
14210;DHT22;7188;56.070;12.698;2023-06-22T04:57:51;17.40;99.90
14210;DHT22;7188;56.070;12.698;2023-06-22T05:00:20;17.40;99.90
14210;DHT22;7188;56.070;12.698;2023-06-22T05:02:48;17.40;99.90
14210;DHT22;7188;56.070;12.698;2023-06-22T05:05:15;17.50;1.00
14210;DHT22;7188;56.070;12.698;2023-06-22T05:07:46;17.60;99.90
14210;DHT22;7188;56.070;12.698;2023-06-22T05:10:16;17.50;99.90
14210;DHT22;7188;56.070;12.698;2023-06-22T05:12:43;17.60;99.90
14210;DHT22;7188;56.070;12.698;2023-06-22T05:15:09;17.60;99.90
14210;DHT22;7188;56.070;12.698;2023-06-22T05:17:36;17.60;9.20
14210;DHT22;7188;56.070;12.698;2023-06-22T05:20:02;17.70;99.90
14210;DHT22;7188;56.070;12.698;2023-06-22T05:22:31;17.70;48.00
14210;DHT22;7188;56.070;12.698;2023-06-22T05:24:57;17.70;1.00
14210;DHT22;7188;56.070;12.698;2023-06-22T05:27:22;17.70;1.00
14210;DHT22;7188;56.070;12.698;2023-06-22T05:29:48;17.70;1.00
14210;DHT22;7188;56.070;12.698;2023-06-22T05:32:14;17.90;1.00
14210;DHT22;7188;56.070;12.698;2023-06-22T05:34:39;17.90;99.90
14210;DHT22;7188;56.070;12.698;2023-06-22T05:37:05;17.80;1.00
14210;DHT22;7188;56.070;12.698;2023-06-22T05:39:31;17.90;99.90
14210;DHT22;7188;56.070;12.698;2023-06-22T05:41:57;18.10;1.00
14210;DHT22;7188;56.070;12.698;2023-06-22T05:44:23;18.10;1.00
14210;DHT22;7188;56.070;12.698;2023-06-22T05:46:48;18.20;58.30
14210;DHT22;7188;56.070;12.698;2023-06-22T05:49:14;18.40;1.00
14210;DHT22;7188;56.070;12.698;2023-06-22T05:51:41;18.60;1.00
14210;DHT22;7188;56.070;12.698;2023-06-22T05:54:07;18.70;1.00
14210;DHT22;7188;56.070;12.698;2023-06-22T05:56:34;18.70;99.90
14210;DHT22;7188;56.070;12.698;2023-06-22T05:58:59;18.60;99.90
14210;DHT22;7188;56.070;12.698;2023-06-22T06:01:25;18.50;99.90
14210;DHT22;7188;56.070;12.698;2023-06-22T06:03:51;18.50;99.90
14210;DHT22;7188;56.070;12.698;2023-06-22T06:06:18;18.50;99.90
14210;DHT22;7188;56.070;12.698;2023-06-22T06:08:45;18.60;99.90
14210;DHT22;7188;56.070;12.698;2023-06-22T06:11:11;18.50;40.90
14210;DHT22;7188;56.070;12.698;2023-06-22T06:13:36;18.60;99.90
14210;DHT22;7188;56.070;12.698;2023-06-22T06:16:02;18.70;1.00
14210;DHT22;7188;56.070;12.698;2023-06-22T06:18:28;18.80;1.00
14210;DHT22;7188;56.070;12.698;2023-06-22T06:20:53;18.80;1.00
14210;DHT22;7188;56.070;12.698;2023-06-22T06:23:19;19.00;1.00
14210;DHT22;7188;56.070;12.698;2023-06-22T06:25:45;19.10;1.00
14210;DHT22;7188;56.070;12.698;2023-06-22T06:28:11;19.30;99.90
14210;DHT22;7188;56.070;12.698;2023-06-22T06:30:36;19.60;99.90
14210;DHT22;7188;56.070;12.698;2023-06-22T06:33:02;19.80;99.90
14210;DHT22;7188;56.070;12.698;2023-06-22T06:35:30;19.70;1.00
14210;DHT22;7188;56.070;12.698;2023-06-22T06:37:55;19.60;99.90
14210;DHT22;7188;56.070;12.698;2023-06-22T06:40:21;19.80;99.90
14210;DHT22;7188;56.070;12.698;2023-06-22T06:42:48;19.90;29.80
14210;DHT22;7188;56.070;12.698;2023-06-22T06:45:22;19.70;62.80
14210;DHT22;7188;56.070;12.698;2023-06-22T06:47:48;19.70;99.90
14210;DHT22;7188;56.070;12.698;2023-06-22T06:50:14;19.90;49.10
14210;DHT22;7188;56.070;12.698;2023-06-22T06:52:40;19.70;33.90
14210;DHT22;7188;56.070;12.698;2023-06-22T06:55:07;19.50;99.90
14210;DHT22;7188;56.070;12.698;2023-06-22T06:57:40;19.70;96.90
14210;DHT22;7188;56.070;12.698;2023-06-22T07:00:11;19.60;1.00
14210;DHT22;7188;56.070;12.698;2023-06-22T07:02:40;19.60;37.60
14210;DHT22;7188;56.070;12.698;2023-06-22T07:05:06;19.70;43.30
14210;DHT22;7188;56.070;12.698;2023-06-22T07:07:32;19.80;1.00
14210;DHT22;7188;56.070;12.698;2023-06-22T07:09:59;19.70;1.00
14210;DHT22;7188;56.070;12.698;2023-06-22T07:12:24;19.50;1.00
14210;DHT22;7188;56.070;12.698;2023-06-22T07:14:51;19.60;1.00
14210;DHT22;7188;56.070;12.698;2023-06-22T07:17:16;19.60;1.00
14210;DHT22;7188;56.070;12.698;2023-06-22T07:19:42;19.60;1.00
14210;DHT22;7188;56.070;12.698;2023-06-22T07:22:08;19.60;1.00
14210;DHT22;7188;56.070;12.698;2023-06-22T07:24:33;19.70;19.70
14210;DHT22;7188;56.070;12.698;2023-06-22T07:26:59;19.90;1.00
14210;DHT22;7188;56.070;12.698;2023-06-22T07:29:25;20.10;1.00
14210;DHT22;7188;56.070;12.698;2023-06-22T07:31:52;20.00;99.90
14210;DHT22;7188;56.070;12.698;2023-06-22T07:34:18;19.80;99.90
14210;DHT22;7188;56.070;12.698;2023-06-22T07:36:44;19.50;1.00
14210;DHT22;7188;56.070;12.698;2023-06-22T07:39:10;19.50;1.00
14210;DHT22;7188;56.070;12.698;2023-06-22T07:41:37;19.50;1.00
14210;DHT22;7188;56.070;12.698;2023-06-22T07:44:04;19.50;99.90
14210;DHT22;7188;56.070;12.698;2023-06-22T07:46:30;19.70;99.90
14210;DHT22;7188;56.070;12.698;2023-06-22T07:48:56;19.80;99.90
14210;DHT22;7188;56.070;12.698;2023-06-22T07:51:22;19.60;99.90
14210;DHT22;7188;56.070;12.698;2023-06-22T07:53:48;19.50;99.90
14210;DHT22;7188;56.070;12.698;2023-06-22T07:56:14;19.50;99.90
14210;DHT22;7188;56.070;12.698;2023-06-22T07:58:45;19.40;99.90
14210;DHT22;7188;56.070;12.698;2023-06-22T08:01:11;19.30;99.90
14210;DHT22;7188;56.070;12.698;2023-06-22T08:03:37;19.50;99.90
14210;DHT22;7188;56.070;12.698;2023-06-22T08:06:03;19.70;99.90
14210;DHT22;7188;56.070;12.698;2023-06-22T08:08:29;19.80;99.90
14210;DHT22;7188;56.070;12.698;2023-06-22T08:10:54;19.80;99.90
14210;DHT22;7188;56.070;12.698;2023-06-22T08:13:20;19.80;99.90
14210;DHT22;7188;56.070;12.698;2023-06-22T08:15:46;19.60;99.90
14210;DHT22;7188;56.070;12.698;2023-06-22T08:18:11;19.60;99.90
14210;DHT22;7188;56.070;12.698;2023-06-22T08:20:37;19.80;99.90
14210;DHT22;7188;56.070;12.698;2023-06-22T08:23:03;19.90;99.90
14210;DHT22;7188;56.070;12.698;2023-06-22T08:25:35;19.90;79.40
14210;DHT22;7188;56.070;12.698;2023-06-22T08:28:01;19.90;99.90
14210;DHT22;7188;56.070;12.698;2023-06-22T08:30:27;19.90;99.90
14210;DHT22;7188;56.070;12.698;2023-06-22T08:32:54;20.00;99.90
14210;DHT22;7188;56.070;12.698;2023-06-22T08:35:22;20.20;99.90
14210;DHT22;7188;56.070;12.698;2023-06-22T08:37:48;20.40;99.90
14210;DHT22;7188;56.070;12.698;2023-06-22T08:40:22;20.50;99.90
14210;DHT22;7188;56.070;12.698;2023-06-22T08:42:48;20.50;1.00
14210;DHT22;7188;56.070;12.698;2023-06-22T08:45:15;20.60;1.00
14210;DHT22;7188;56.070;12.698;2023-06-22T08:47:41;20.70;1.00
14210;DHT22;7188;56.070;12.698;2023-06-22T08:50:11;20.70;1.00
14210;DHT22;7188;56.070;12.698;2023-06-22T08:52:38;20.70;1.00
14210;DHT22;7188;56.070;12.698;2023-06-22T08:55:07;20.60;1.00
14210;DHT22;7188;56.070;12.698;2023-06-22T08:57:34;20.60;1.00
14210;DHT22;7188;56.070;12.698;2023-06-22T08:59:59;20.50;1.00
14210;DHT22;7188;56.070;12.698;2023-06-22T09:02:28;20.50;1.00
14210;DHT22;7188;56.070;12.698;2023-06-22T09:04:59;20.40;1.00
14210;DHT22;7188;56.070;12.698;2023-06-22T09:07:24;20.70;1.00
14210;DHT22;7188;56.070;12.698;2023-06-22T09:09:51;20.90;1.00
14210;DHT22;7188;56.070;12.698;2023-06-22T09:12:19;21.00;1.00
14210;DHT22;7188;56.070;12.698;2023-06-22T09:14:46;21.10;1.00
14210;DHT22;7188;56.070;12.698;2023-06-22T09:17:13;21.30;1.00
14210;DHT22;7188;56.070;12.698;2023-06-22T09:19:38;21.20;1.00
14210;DHT22;7188;56.070;12.698;2023-06-22T09:22:05;21.10;1.00
14210;DHT22;7188;56.070;12.698;2023-06-22T09:24:32;20.90;1.00
14210;DHT22;7188;56.070;12.698;2023-06-22T09:26:57;20.90;1.00
14210;DHT22;7188;56.070;12.698;2023-06-22T09:29:23;20.90;1.00
14210;DHT22;7188;56.070;12.698;2023-06-22T09:31:49;21.10;1.00
14210;DHT22;7188;56.070;12.698;2023-06-22T09:34:14;21.00;1.00
14210;DHT22;7188;56.070;12.698;2023-06-22T09:36:41;21.00;1.00
14210;DHT22;7188;56.070;12.698;2023-06-22T09:39:07;21.00;1.00
14210;DHT22;7188;56.070;12.698;2023-06-22T09:41:32;21.00;1.00
14210;DHT22;7188;56.070;12.698;2023-06-22T09:43:58;21.10;1.00
14210;DHT22;7188;56.070;12.698;2023-06-22T09:46:24;21.10;1.00
14210;DHT22;7188;56.070;12.698;2023-06-22T09:48:53;21.10;1.00
14210;DHT22;7188;56.070;12.698;2023-06-22T09:51:19;21.40;1.00
14210;DHT22;7188;56.070;12.698;2023-06-22T09:53:47;21.60;1.00
14210;DHT22;7188;56.070;12.698;2023-06-22T09:56:13;21.60;99.90
14210;DHT22;7188;56.070;12.698;2023-06-22T09:58:44;21.50;1.00
14210;DHT22;7188;56.070;12.698;2023-06-22T10:01:10;21.60;1.00
14210;DHT22;7188;56.070;12.698;2023-06-22T10:03:36;21.80;1.00
14210;DHT22;7188;56.070;12.698;2023-06-22T10:06:02;21.80;99.90
14210;DHT22;7188;56.070;12.698;2023-06-22T10:08:28;21.70;99.90
14210;DHT22;7188;56.070;12.698;2023-06-22T10:10:54;21.50;99.90
14210;DHT22;7188;56.070;12.698;2023-06-22T10:13:20;21.40;99.90
14210;DHT22;7188;56.070;12.698;2023-06-22T10:15:46;21.30;99.90
14210;DHT22;7188;56.070;12.698;2023-06-22T10:18:17;21.40;99.90
14210;DHT22;7188;56.070;12.698;2023-06-22T10:20:44;21.50;99.90
14210;DHT22;7188;56.070;12.698;2023-06-22T10:23:09;21.80;99.90
14210;DHT22;7188;56.070;12.698;2023-06-22T10:25:35;22.10;99.90
14210;DHT22;7188;56.070;12.698;2023-06-22T10:28:01;22.20;99.90
14210;DHT22;7188;56.070;12.698;2023-06-22T10:30:26;22.40;11.40
14210;DHT22;7188;56.070;12.698;2023-06-22T10:32:52;22.20;1.00
14210;DHT22;7188;56.070;12.698;2023-06-22T10:35:18;22.10;1.00
14210;DHT22;7188;56.070;12.698;2023-06-22T10:37:44;21.90;1.00
14210;DHT22;7188;56.070;12.698;2023-06-22T10:40:15;22.10;1.00
14210;DHT22;7188;56.070;12.698;2023-06-22T10:42:41;22.10;1.00
14210;DHT22;7188;56.070;12.698;2023-06-22T10:45:07;22.10;1.00
14210;DHT22;7188;56.070;12.698;2023-06-22T10:47:34;22.20;1.00
14210;DHT22;7188;56.070;12.698;2023-06-22T10:49:59;22.40;1.00
14210;DHT22;7188;56.070;12.698;2023-06-22T10:52:25;22.40;1.00
14210;DHT22;7188;56.070;12.698;2023-06-22T10:54:51;22.50;1.00
14210;DHT22;7188;56.070;12.698;2023-06-22T10:57:18;22.30;1.00
14210;DHT22;7188;56.070;12.698;2023-06-22T10:59:43;22.30;1.00
14210;DHT22;7188;56.070;12.698;2023-06-22T11:02:09;22.40;1.00
14210;DHT22;7188;56.070;12.698;2023-06-22T11:04:35;22.40;1.00
14210;DHT22;7188;56.070;12.698;2023-06-22T11:07:00;22.50;1.00
14210;DHT22;7188;56.070;12.698;2023-06-22T11:09:26;22.60;1.00
14210;DHT22;7188;56.070;12.698;2023-06-22T11:11:52;22.70;1.00
14210;DHT22;7188;56.070;12.698;2023-06-22T11:14:19;22.50;1.00
14210;DHT22;7188;56.070;12.698;2023-06-22T11:16:45;22.40;1.00
14210;DHT22;7188;56.070;12.698;2023-06-22T11:19:12;22.30;1.00
14210;DHT22;7188;56.070;12.698;2023-06-22T11:21:38;22.50;1.00
14210;DHT22;7188;56.070;12.698;2023-06-22T11:24:04;22.80;1.00
14210;DHT22;7188;56.070;12.698;2023-06-22T11:26:30;23.10;1.00
14210;DHT22;7188;56.070;12.698;2023-06-22T11:28:57;22.90;1.00
14210;DHT22;7188;56.070;12.698;2023-06-22T11:31:23;23.00;1.00
14210;DHT22;7188;56.070;12.698;2023-06-22T11:33:49;23.20;1.00
14210;DHT22;7188;56.070;12.698;2023-06-22T11:36:15;23.10;1.00
14210;DHT22;7188;56.070;12.698;2023-06-22T11:38:42;23.10;1.00
14210;DHT22;7188;56.070;12.698;2023-06-22T11:41:08;23.10;1.00
14210;DHT22;7188;56.070;12.698;2023-06-22T11:43:34;23.40;1.00
14210;DHT22;7188;56.070;12.698;2023-06-22T11:46:03;23.40;1.00
14210;DHT22;7188;56.070;12.698;2023-06-22T11:48:29;23.10;1.00
14210;DHT22;7188;56.070;12.698;2023-06-22T11:50:55;23.00;1.00
14210;DHT22;7188;56.070;12.698;2023-06-22T11:53:23;22.90;1.00
14210;DHT22;7188;56.070;12.698;2023-06-22T11:55:48;22.90;1.00
14210;DHT22;7188;56.070;12.698;2023-06-22T11:58:14;22.90;1.00
14210;DHT22;7188;56.070;12.698;2023-06-22T12:00:40;23.00;1.00
14210;DHT22;7188;56.070;12.698;2023-06-22T12:03:07;23.10;1.00
14210;DHT22;7188;56.070;12.698;2023-06-22T12:05:32;23.20;1.00
14210;DHT22;7188;56.070;12.698;2023-06-22T12:07:58;23.40;1.00
14210;DHT22;7188;56.070;12.698;2023-06-22T12:10:25;23.40;1.00
14210;DHT22;7188;56.070;12.698;2023-06-22T12:12:51;23.50;1.00
14210;DHT22;7188;56.070;12.698;2023-06-22T12:15:17;23.40;1.00
14210;DHT22;7188;56.070;12.698;2023-06-22T12:17:43;23.20;1.00
14210;DHT22;7188;56.070;12.698;2023-06-22T12:20:09;23.00;1.00
14210;DHT22;7188;56.070;12.698;2023-06-22T12:22:35;22.90;1.00
14210;DHT22;7188;56.070;12.698;2023-06-22T12:25:03;22.90;1.00
14210;DHT22;7188;56.070;12.698;2023-06-22T12:27:29;22.90;1.00
14210;DHT22;7188;56.070;12.698;2023-06-22T12:29:56;23.00;1.00
14210;DHT22;7188;56.070;12.698;2023-06-22T12:32:21;23.20;1.00
14210;DHT22;7188;56.070;12.698;2023-06-22T12:34:47;23.60;1.00
14210;DHT22;7188;56.070;12.698;2023-06-22T12:37:13;23.70;1.00
14210;DHT22;7188;56.070;12.698;2023-06-22T12:39:40;23.90;1.00
14210;DHT22;7188;56.070;12.698;2023-06-22T12:42:06;24.10;1.00
14210;DHT22;7188;56.070;12.698;2023-06-22T12:44:37;23.90;1.00
14210;DHT22;7188;56.070;12.698;2023-06-22T12:47:04;23.80;1.00
14210;DHT22;7188;56.070;12.698;2023-06-22T12:49:29;23.60;1.00
14210;DHT22;7188;56.070;12.698;2023-06-22T12:51:55;23.60;1.00
14210;DHT22;7188;56.070;12.698;2023-06-22T12:54:21;23.60;1.00
14210;DHT22;7188;56.070;12.698;2023-06-22T12:56:46;23.60;1.00
14210;DHT22;7188;56.070;12.698;2023-06-22T12:59:12;23.60;1.00
14210;DHT22;7188;56.070;12.698;2023-06-22T13:01:38;23.60;1.00
14210;DHT22;7188;56.070;12.698;2023-06-22T13:04:04;23.70;1.00
14210;DHT22;7188;56.070;12.698;2023-06-22T13:06:29;23.90;1.00
14210;DHT22;7188;56.070;12.698;2023-06-22T13:08:55;23.90;1.00
14210;DHT22;7188;56.070;12.698;2023-06-22T13:11:21;23.70;1.00
14210;DHT22;7188;56.070;12.698;2023-06-22T13:13:47;23.50;1.00
14210;DHT22;7188;56.070;12.698;2023-06-22T13:16:12;23.60;1.00
14210;DHT22;7188;56.070;12.698;2023-06-22T13:18:38;23.80;1.00
14210;DHT22;7188;56.070;12.698;2023-06-22T13:21:04;24.00;1.00
14210;DHT22;7188;56.070;12.698;2023-06-22T13:23:30;24.10;1.00
14210;DHT22;7188;56.070;12.698;2023-06-22T13:25:57;24.10;1.00
14210;DHT22;7188;56.070;12.698;2023-06-22T13:28:23;24.10;1.00
14210;DHT22;7188;56.070;12.698;2023-06-22T13:30:48;23.90;1.00
14210;DHT22;7188;56.070;12.698;2023-06-22T13:33:14;24.00;1.00
14210;DHT22;7188;56.070;12.698;2023-06-22T13:35:40;24.00;1.00
14210;DHT22;7188;56.070;12.698;2023-06-22T13:38:10;24.10;1.00
14210;DHT22;7188;56.070;12.698;2023-06-22T13:40:39;24.00;1.00
14210;DHT22;7188;56.070;12.698;2023-06-22T13:43:05;24.00;1.00
14210;DHT22;7188;56.070;12.698;2023-06-22T13:45:31;23.90;1.00
14210;DHT22;7188;56.070;12.698;2023-06-22T13:47:56;23.90;1.00
14210;DHT22;7188;56.070;12.698;2023-06-22T13:50:22;24.10;1.00
14210;DHT22;7188;56.070;12.698;2023-06-22T13:52:48;24.20;1.00
14210;DHT22;7188;56.070;12.698;2023-06-22T13:55:13;24.30;1.00
14210;DHT22;7188;56.070;12.698;2023-06-22T13:57:40;24.40;1.00
14210;DHT22;7188;56.070;12.698;2023-06-22T14:00:06;24.30;1.00
14210;DHT22;7188;56.070;12.698;2023-06-22T14:02:33;24.00;1.00
14210;DHT22;7188;56.070;12.698;2023-06-22T14:04:58;24.00;1.00
14210;DHT22;7188;56.070;12.698;2023-06-22T14:07:24;23.90;1.00
14210;DHT22;7188;56.070;12.698;2023-06-22T14:09:50;23.80;1.00
14210;DHT22;7188;56.070;12.698;2023-06-22T14:12:16;23.90;1.00
14210;DHT22;7188;56.070;12.698;2023-06-22T14:14:43;23.80;1.00
14210;DHT22;7188;56.070;12.698;2023-06-22T14:17:09;23.80;1.00
14210;DHT22;7188;56.070;12.698;2023-06-22T14:19:35;23.80;1.00
14210;DHT22;7188;56.070;12.698;2023-06-22T14:22:01;23.90;1.00
14210;DHT22;7188;56.070;12.698;2023-06-22T14:24:27;23.90;1.00
14210;DHT22;7188;56.070;12.698;2023-06-22T14:26:53;23.80;1.00
14210;DHT22;7188;56.070;12.698;2023-06-22T14:29:19;24.00;1.00
14210;DHT22;7188;56.070;12.698;2023-06-22T14:31:45;23.90;1.00
14210;DHT22;7188;56.070;12.698;2023-06-22T14:34:12;23.90;1.00
14210;DHT22;7188;56.070;12.698;2023-06-22T14:36:37;24.00;1.00
14210;DHT22;7188;56.070;12.698;2023-06-22T14:39:03;23.90;1.00
14210;DHT22;7188;56.070;12.698;2023-06-22T14:41:31;23.80;1.00
14210;DHT22;7188;56.070;12.698;2023-06-22T14:43:57;24.00;1.00
14210;DHT22;7188;56.070;12.698;2023-06-22T14:46:23;24.10;1.00
14210;DHT22;7188;56.070;12.698;2023-06-22T14:48:49;24.30;1.00
14210;DHT22;7188;56.070;12.698;2023-06-22T14:51:15;24.50;1.00
14210;DHT22;7188;56.070;12.698;2023-06-22T14:53:42;24.50;1.00
14210;DHT22;7188;56.070;12.698;2023-06-22T14:56:08;24.40;1.00
14210;DHT22;7188;56.070;12.698;2023-06-22T14:58:34;24.30;1.00
14210;DHT22;7188;56.070;12.698;2023-06-22T15:01:02;24.40;1.00
14210;DHT22;7188;56.070;12.698;2023-06-22T15:03:29;24.40;1.00
14210;DHT22;7188;56.070;12.698;2023-06-22T15:05:56;24.20;1.00
14210;DHT22;7188;56.070;12.698;2023-06-22T15:08:22;24.10;1.00
14210;DHT22;7188;56.070;12.698;2023-06-22T15:10:48;24.10;1.00
14210;DHT22;7188;56.070;12.698;2023-06-22T15:13:13;24.00;1.00
14210;DHT22;7188;56.070;12.698;2023-06-22T15:15:39;24.10;1.00
14210;DHT22;7188;56.070;12.698;2023-06-22T15:18:05;24.10;1.00
14210;DHT22;7188;56.070;12.698;2023-06-22T15:20:30;23.90;1.00
14210;DHT22;7188;56.070;12.698;2023-06-22T15:22:59;23.90;1.00
14210;DHT22;7188;56.070;12.698;2023-06-22T15:25:25;24.00;1.00
14210;DHT22;7188;56.070;12.698;2023-06-22T15:27:50;24.20;1.00
14210;DHT22;7188;56.070;12.698;2023-06-22T15:30:22;24.30;1.00
14210;DHT22;7188;56.070;12.698;2023-06-22T15:32:49;24.30;1.00
14210;DHT22;7188;56.070;12.698;2023-06-22T15:35:15;24.30;1.00
14210;DHT22;7188;56.070;12.698;2023-06-22T15:37:44;24.30;1.00
14210;DHT22;7188;56.070;12.698;2023-06-22T15:40:10;24.30;1.00
14210;DHT22;7188;56.070;12.698;2023-06-22T15:42:35;24.20;1.00
14210;DHT22;7188;56.070;12.698;2023-06-22T15:45:01;24.00;1.00
14210;DHT22;7188;56.070;12.698;2023-06-22T15:47:27;24.00;1.00
14210;DHT22;7188;56.070;12.698;2023-06-22T15:49:52;24.20;1.00